createdAt,value
2019-04-10T00:03:25.894Z,12.10
2019-04-10T00:06:48.318Z,12.10
2019-04-10T00:09:43.778Z,12.20
2019-04-10T00:12:54.291Z,12.20
2019-04-10T00:15:26.787Z,12.20
2019-04-10T00:18:48.514Z,12.20
2019-04-10T00:24:57.771Z,12.30
2019-04-10T00:27:47.491Z,12.20
2019-04-10T00:37:51.292Z,12.20
2019-04-10T00:41:48.331Z,12.20
2019-04-10T00:44:54.900Z,12.20
2019-04-10T00:48:04.195Z,12.30
2019-04-10T00:58:22.631Z,12.30
2019-04-10T01:04:30.625Z,12.30
2019-04-10T01:18:15.047Z,11.80
2019-04-10T01:21:22.364Z,11.80
2019-04-10T01:23:59.511Z,11.60
2019-04-10T01:26:51.730Z,11.50
2019-04-10T01:30:14.063Z,11.40
2019-04-10T01:32:58.555Z,11.40
2019-04-10T01:35:49.113Z,11.40
2019-04-10T01:38:53.688Z,11.30
2019-04-10T01:41:54.392Z,11.20
2019-04-10T01:44:51.809Z,11.10
2019-04-10T01:50:35.037Z,11.10
2019-04-10T01:53:30.006Z,11.10
2019-04-10T01:56:27.063Z,11.10
2019-04-10T01:59:12.584Z,11.10
2019-04-10T02:02:03.080Z,11.00
2019-04-10T02:05:00.850Z,11.00
2019-04-10T02:07:57.830Z,10.80
2019-04-10T02:10:38.396Z,10.80
2019-04-10T02:13:29.701Z,10.80
2019-04-10T02:16:02.771Z,10.80
2019-04-10T02:18:47.888Z,10.80
2019-04-10T02:21:34.018Z,10.80
2019-04-10T02:24:47.217Z,10.90
2019-04-10T02:33:33.721Z,10.80
2019-04-10T02:36:05.919Z,10.70
2019-04-10T02:38:52.666Z,10.70
2019-04-10T02:41:14.143Z,10.60
2019-04-10T02:43:47.445Z,10.60
2019-04-10T02:46:20.077Z,10.60
2019-04-10T02:48:52.183Z,10.50
2019-04-10T02:51:26.930Z,10.50
2019-04-10T02:54:00.442Z,10.60
2019-04-10T02:56:32.751Z,10.60
2019-04-10T02:59:05.043Z,10.60
2019-04-10T03:01:38.078Z,10.50
2019-04-10T03:04:11.846Z,10.40
2019-04-10T03:06:45.232Z,10.30
2019-04-10T03:09:32.496Z,10.40
2019-04-10T03:11:51.939Z,10.20
2019-04-10T03:14:24.435Z,10.20
2019-04-10T03:16:56.571Z,10.30
2019-04-10T03:19:29.623Z,10.30
2019-04-10T03:22:01.885Z,10.30
2019-04-10T03:24:33.928Z,10.30
2019-04-10T03:27:05.983Z,10.30
2019-04-10T03:29:38.146Z,10.40
2019-04-10T03:32:33.241Z,10.30
2019-04-10T03:35:08.165Z,10.30
2019-04-10T03:37:40.374Z,10.30
2019-04-10T03:40:13.318Z,10.30
2019-04-10T03:42:45.496Z,10.30
2019-04-10T03:45:17.439Z,10.30
2019-04-10T03:47:49.461Z,10.20
2019-04-10T03:50:21.613Z,10.20
2019-04-10T03:52:55.846Z,10.20
2019-04-10T03:55:27.791Z,10.20
2019-04-10T03:58:00.798Z,10.20
2019-04-10T04:00:32.965Z,10.10
2019-04-10T04:03:04.969Z,10.20
2019-04-10T04:05:37.282Z,10.20
2019-04-10T04:08:09.317Z,10.20
2019-04-10T04:10:42.595Z,10.20
2019-04-10T04:13:15.324Z,10.20
2019-04-10T04:15:48.374Z,10.20
2019-04-10T04:18:21.391Z,10.30
2019-04-10T04:21:01.536Z,10.40
2019-04-10T04:23:29.825Z,10.50
2019-04-10T04:26:02.972Z,10.50
2019-04-10T04:28:36.218Z,10.40
2019-04-10T04:31:09.415Z,10.50
2019-04-10T04:33:41.797Z,10.50
2019-04-10T04:36:13.977Z,10.50
2019-04-10T04:38:46.055Z,10.50
2019-04-10T04:41:18.191Z,10.50
2019-04-10T04:43:50.237Z,10.50
2019-04-10T04:46:22.476Z,10.60
2019-04-10T04:48:54.420Z,10.60
2019-04-10T04:51:27.299Z,10.50
2019-04-10T04:53:59.174Z,10.50
2019-04-10T04:56:31.721Z,10.50
2019-04-10T04:59:03.776Z,10.50
2019-04-10T05:01:39.046Z,10.50
2019-04-10T05:04:11.229Z,10.50
2019-04-10T05:06:45.829Z,10.50
2019-04-10T05:09:28.795Z,10.50
2019-04-10T05:11:51.501Z,10.50
2019-04-10T05:14:25.610Z,10.40
2019-04-10T05:16:57.658Z,10.30
2019-04-10T05:19:29.813Z,10.20
2019-04-10T05:22:02.039Z,10.30
2019-04-10T05:24:36.239Z,10.30
2019-04-10T05:27:08.418Z,10.30
2019-04-10T05:29:40.953Z,10.40
2019-04-10T05:32:14.536Z,10.50
2019-04-10T05:34:50.347Z,10.50
2019-04-10T05:37:21.296Z,10.50
2019-04-10T05:39:53.923Z,10.60
2019-04-10T05:42:27.219Z,10.60
2019-04-10T05:44:59.247Z,10.60
2019-04-10T05:47:32.353Z,10.60
2019-04-10T05:50:06.026Z,10.60
2019-04-10T05:52:39.597Z,10.60
2019-04-10T05:55:11.959Z,10.60
2019-04-10T05:57:44.797Z,10.60
2019-04-10T06:00:18.872Z,10.60
2019-04-10T06:02:50.932Z,10.70
2019-04-10T06:05:23.043Z,10.70
2019-04-10T06:07:55.211Z,10.70
2019-04-10T06:10:27.370Z,10.70
2019-04-10T06:13:00.501Z,10.70
2019-04-10T06:15:32.945Z,10.70
2019-04-10T06:18:05.074Z,10.70
2019-04-10T06:20:37.631Z,10.70
2019-04-10T06:23:09.850Z,10.70
2019-04-10T06:25:43.430Z,10.70
2019-04-10T06:28:16.946Z,10.70
2019-04-10T06:30:50.144Z,10.60
2019-04-10T06:33:22.420Z,10.70
2019-04-10T06:35:55.148Z,10.60
2019-04-10T06:38:28.587Z,10.60
2019-04-10T06:41:02.158Z,10.50
2019-04-10T06:43:34.229Z,10.50
2019-04-10T06:46:06.632Z,10.50
2019-04-10T06:48:38.851Z,10.40
2019-04-10T06:51:12.289Z,10.50
2019-04-10T06:53:44.978Z,10.40
2019-04-10T06:56:17.004Z,10.40
2019-04-10T06:58:49.906Z,10.40
2019-04-10T07:01:24.268Z,10.40
2019-04-10T07:04:02.107Z,10.30
2019-04-10T07:06:44.985Z,10.30
2019-04-10T07:09:05.678Z,10.30
2019-04-10T07:11:39.808Z,10.40
2019-04-10T07:14:14.252Z,10.40
2019-04-10T07:16:48.613Z,10.40
2019-04-10T07:19:20.595Z,10.50
2019-04-10T07:21:52.959Z,10.50
2019-04-10T07:24:25.178Z,10.50
2019-04-10T07:27:00.230Z,10.50
2019-04-10T07:29:31.430Z,10.40
2019-04-10T07:32:07.783Z,10.50
2019-04-10T07:34:37.963Z,10.40
2019-04-10T07:37:12.138Z,10.40
2019-04-10T07:39:45.047Z,10.30
2019-04-10T07:42:26.731Z,10.40
2019-04-10T07:44:56.212Z,10.40
2019-04-10T07:47:27.212Z,10.40
2019-04-10T07:50:01.755Z,10.40
2019-04-10T07:52:33.677Z,10.40
2019-04-10T07:55:08.509Z,10.30
2019-04-10T07:57:44.743Z,10.30
2019-04-10T08:00:16.540Z,10.40
2019-04-10T08:03:02.317Z,10.40
2019-04-10T08:05:35.392Z,10.50
2019-04-10T08:08:08.689Z,10.60
2019-04-10T08:10:42.400Z,10.60
2019-04-10T08:13:16.126Z,10.50
2019-04-10T08:15:48.705Z,10.40
2019-04-10T08:18:21.220Z,10.40
2019-04-10T08:20:53.650Z,10.40
2019-04-10T08:23:26.114Z,10.40
2019-04-10T08:26:00.110Z,10.50
2019-04-10T08:28:32.876Z,10.50
2019-04-10T08:31:08.668Z,10.50
2019-04-10T08:34:06.568Z,10.50
2019-04-10T08:36:39.485Z,10.50
2019-04-10T08:39:27.742Z,10.60
2019-04-10T08:41:50.028Z,10.60
2019-04-10T08:44:24.323Z,10.70
2019-04-10T08:46:58.143Z,10.70
2019-04-10T08:49:31.023Z,10.70
2019-04-10T08:52:04.022Z,10.80
2019-04-10T08:54:36.424Z,10.70
2019-04-10T08:57:09.611Z,10.80
2019-04-10T08:59:46.929Z,10.70
2019-04-10T09:02:20.107Z,10.80
2019-04-10T09:04:53.182Z,10.80
2019-04-10T09:07:26.913Z,10.80
2019-04-10T09:10:10.387Z,10.90
2019-04-10T09:16:28.838Z,11.00
2019-04-10T09:19:01.874Z,11.00
2019-04-10T09:21:34.648Z,11.10
2019-04-10T09:24:06.833Z,11.10
2019-04-10T09:26:39.045Z,11.10
2019-04-10T09:29:11.903Z,11.10
2019-04-10T09:31:46.034Z,11.10
2019-04-10T09:34:21.494Z,11.20
2019-04-10T09:36:53.636Z,11.20
2019-04-10T09:39:27.627Z,11.20
2019-04-10T09:42:00.951Z,11.30
2019-04-10T09:44:46.563Z,11.40
2019-04-10T09:47:18.714Z,11.40
2019-04-10T09:50:03.252Z,11.40
2019-04-10T09:52:35.800Z,11.50
2019-04-10T09:55:08.085Z,11.50
2019-04-10T09:57:40.901Z,11.60
2019-04-10T10:00:13.876Z,11.70
2019-04-10T10:02:47.651Z,11.70
2019-04-10T10:05:20.290Z,11.80
2019-04-10T10:07:53.611Z,11.80
2019-04-10T10:10:26.178Z,11.90
2019-04-10T10:12:59.105Z,12.00
2019-04-10T10:15:31.525Z,12.10
2019-04-10T10:18:03.685Z,12.10
2019-04-10T10:20:35.812Z,12.30
2019-04-10T10:23:08.227Z,12.40
2019-04-10T10:25:41.466Z,12.50
2019-04-10T10:28:13.678Z,12.60
2019-04-10T10:30:45.816Z,12.50
2019-04-10T10:33:17.900Z,12.50
2019-04-10T10:35:50.009Z,12.60
2019-04-10T10:38:23.085Z,12.70
2019-04-10T10:40:55.233Z,12.70
2019-04-10T10:43:28.691Z,12.70
2019-04-10T10:46:01.058Z,12.80
2019-04-10T10:48:33.015Z,12.80
2019-04-10T10:51:08.657Z,12.80
2019-04-10T10:53:40.813Z,12.80
2019-04-10T10:56:13.977Z,12.70
2019-04-10T10:58:46.243Z,12.80
2019-04-10T11:01:18.354Z,12.80
2019-04-10T11:03:51.476Z,12.70
2019-04-10T11:06:24.684Z,12.70
2019-04-10T11:08:56.936Z,12.80
2019-04-10T11:11:29.051Z,12.80
2019-04-10T11:14:01.326Z,12.90
2019-04-10T11:16:33.917Z,13.00
2019-04-10T11:19:08.149Z,13.10
2019-04-10T11:21:42.962Z,13.20
2019-04-10T11:24:15.220Z,13.20
2019-04-10T11:26:47.347Z,13.30
2019-04-10T11:29:21.914Z,13.30
2019-04-10T11:31:55.493Z,13.40
2019-04-10T11:34:29.243Z,13.40
2019-04-10T11:37:20.281Z,13.50
2019-04-10T11:39:38.338Z,13.50
2019-04-10T11:42:10.074Z,13.40
2019-04-10T11:44:45.645Z,13.40
2019-04-10T11:47:17.350Z,13.40
2019-04-10T11:49:49.721Z,13.40
2019-04-10T11:52:33.009Z,13.40
2019-04-10T11:55:05.109Z,13.40
2019-04-10T11:57:32.107Z,13.40
2019-04-10T12:00:06.115Z,13.30
2019-04-10T12:02:39.434Z,13.30
2019-04-10T12:05:18.601Z,13.40
2019-04-10T12:08:09.613Z,13.30
2019-04-10T12:12:54.379Z,13.30
2019-04-10T12:15:26.265Z,13.40
2019-04-10T12:17:58.371Z,13.40
2019-04-10T12:20:31.347Z,13.50
2019-04-10T12:23:03.534Z,13.50
2019-04-10T12:25:36.570Z,13.50
2019-04-10T12:28:09.591Z,13.60
2019-04-10T12:30:42.337Z,13.80
2019-04-10T12:33:14.403Z,13.80
2019-04-10T12:35:47.777Z,13.90
2019-04-10T12:38:19.946Z,14.00
2019-04-10T12:40:52.947Z,14.00
2019-04-10T12:43:25.887Z,14.10
2019-04-10T12:45:58.165Z,14.10
2019-04-10T12:48:30.456Z,14.00
2019-04-10T12:51:03.447Z,14.00
2019-04-10T12:53:35.915Z,13.90
2019-04-10T12:56:08.230Z,14.00
2019-04-10T12:58:40.310Z,14.00
2019-04-10T13:01:12.504Z,13.90
2019-04-10T13:03:44.717Z,14.00
2019-04-10T13:06:17.937Z,13.90
2019-04-10T13:09:00.767Z,14.00
2019-04-10T13:11:24.572Z,14.00
2019-04-10T13:13:58.046Z,14.00
2019-04-10T13:16:30.303Z,14.10
2019-04-10T13:19:02.831Z,14.10
2019-04-10T13:21:35.072Z,14.00
2019-04-10T13:24:09.547Z,13.90
2019-04-10T13:26:42.007Z,14.00
2019-04-10T13:29:14.230Z,14.00
2019-04-10T13:31:46.721Z,14.00
2019-04-10T13:34:19.694Z,14.00
2019-04-10T13:36:52.222Z,13.90
2019-04-10T13:39:24.814Z,13.90
2019-04-10T13:42:07.182Z,13.90
2019-04-10T13:44:40.408Z,14.00
2019-04-10T13:47:13.654Z,14.10
2019-04-10T13:49:46.341Z,14.10
2019-04-10T13:52:20.861Z,14.10
2019-04-10T13:54:52.838Z,14.10
2019-04-10T13:57:26.499Z,14.10
2019-04-10T13:59:59.499Z,14.20
2019-04-10T14:02:37.538Z,14.20
2019-04-10T14:05:13.726Z,14.20
2019-04-10T14:07:46.391Z,14.10
2019-04-10T14:10:20.918Z,14.00
2019-04-10T14:12:53.530Z,14.00
2019-04-10T14:15:30.216Z,14.00
2019-04-10T14:18:04.000Z,14.00
2019-04-10T14:20:45.729Z,14.00
2019-04-10T14:23:29.325Z,14.00
2019-04-10T14:26:46.374Z,13.90
2019-04-10T14:29:18.477Z,13.80
2019-04-10T14:31:56.623Z,13.70
2019-04-10T14:34:30.412Z,13.60
2019-04-10T14:37:03.363Z,13.70
2019-04-10T14:39:35.917Z,13.80
2019-04-10T14:42:08.656Z,13.90
2019-04-10T14:44:41.046Z,14.00
2019-04-10T14:47:14.901Z,14.00
2019-04-10T14:49:47.253Z,14.00
2019-04-10T14:52:19.436Z,14.00
2019-04-10T14:54:52.333Z,14.00
2019-04-10T14:57:26.586Z,14.00
2019-04-10T14:59:58.815Z,14.10
2019-04-10T15:02:32.777Z,14.10
2019-04-10T15:05:05.817Z,14.20
2019-04-10T15:07:37.865Z,14.20
2019-04-10T15:10:10.894Z,14.30
2019-04-10T15:12:43.788Z,14.30
2019-04-10T15:15:18.458Z,14.20
2019-04-10T15:17:50.594Z,14.30
2019-04-10T15:20:22.934Z,14.30
2019-04-10T15:23:01.474Z,14.30
2019-04-10T15:25:33.721Z,14.20
2019-04-10T15:28:06.472Z,14.30
2019-04-10T15:30:39.029Z,14.30
2019-04-10T15:33:12.139Z,14.40
2019-04-10T15:35:46.823Z,14.30
2019-04-10T15:38:30.920Z,14.30
2019-04-10T15:41:37.158Z,14.40
2019-04-10T15:44:16.396Z,14.40
2019-04-10T15:47:10.566Z,14.40
2019-04-10T15:49:55.393Z,14.30
2019-04-10T15:52:35.418Z,14.30
2019-04-10T15:55:13.371Z,14.20
2019-04-10T15:57:53.126Z,14.20
2019-04-10T16:00:21.134Z,14.30
2019-04-10T16:02:54.038Z,14.30
2019-04-10T16:05:27.206Z,14.30
2019-04-10T16:07:59.423Z,14.20
2019-04-10T16:10:46.225Z,14.10
2019-04-10T16:13:26.402Z,14.20
2019-04-10T16:16:05.067Z,14.10
2019-04-10T16:18:37.479Z,14.10
2019-04-10T16:21:10.386Z,14.20
2019-04-10T16:23:47.986Z,14.20
2019-04-10T16:26:21.192Z,14.10
2019-04-10T16:28:53.634Z,14.10
2019-04-10T16:31:25.953Z,14.00
2019-04-10T16:35:05.188Z,14.00
2019-04-10T16:37:42.327Z,14.10
2019-04-10T16:40:18.534Z,14.00
2019-04-10T16:42:55.096Z,14.00
2019-04-10T16:45:28.447Z,14.00
2019-04-10T16:48:00.863Z,14.00
2019-04-10T16:50:34.223Z,14.00
2019-04-10T16:53:06.421Z,13.90
2019-04-10T16:55:38.788Z,13.90
2019-04-10T16:58:11.675Z,13.70
2019-04-10T17:00:45.214Z,13.60
2019-04-10T17:03:17.713Z,13.60
2019-04-10T17:05:50.095Z,13.50
2019-04-10T17:08:22.098Z,13.60
2019-04-10T17:10:54.191Z,13.60
2019-04-10T17:13:28.838Z,13.60
2019-04-10T17:16:07.341Z,13.60
2019-04-10T17:18:39.541Z,13.60
2019-04-10T17:21:13.000Z,13.60
2019-04-10T17:23:55.210Z,13.50
2019-04-10T17:26:27.608Z,13.50
2019-04-10T17:29:00.773Z,13.50
2019-04-10T17:31:33.039Z,13.50
2019-04-10T17:34:06.151Z,13.50
2019-04-10T17:36:38.247Z,13.40
2019-04-10T17:39:16.258Z,13.40
2019-04-10T17:41:50.240Z,13.40
2019-04-10T17:44:23.521Z,13.30
2019-04-10T17:46:57.619Z,13.30
2019-04-10T17:49:29.980Z,13.40
2019-04-10T17:52:03.802Z,13.30
2019-04-10T17:54:36.667Z,13.30
2019-04-10T17:57:09.017Z,13.30
2019-04-10T17:59:40.973Z,13.30
2019-04-10T18:02:13.759Z,13.30
2019-04-10T18:04:46.442Z,13.30
2019-04-10T18:07:19.490Z,13.30
2019-04-10T18:09:53.020Z,13.30
2019-04-10T18:12:25.432Z,13.30
2019-04-10T18:14:57.650Z,13.30
2019-04-10T18:17:29.588Z,13.20
2019-04-10T18:20:02.988Z,13.20
2019-04-10T18:22:36.405Z,13.20
2019-04-10T18:25:09.722Z,13.20
2019-04-10T18:27:42.856Z,13.20
2019-04-10T18:30:17.438Z,13.10
2019-04-10T18:33:00.448Z,13.00
2019-04-10T18:35:33.676Z,13.10
2019-04-10T18:38:06.290Z,13.10
2019-04-10T18:40:52.206Z,13.00
2019-04-10T18:43:25.918Z,13.00
2019-04-10T18:46:10.409Z,13.00
2019-04-10T18:48:47.216Z,12.90
2019-04-10T18:51:21.671Z,13.00
2019-04-10T18:53:57.585Z,13.00
2019-04-10T18:56:33.450Z,13.00
2019-04-10T18:59:12.368Z,12.90
2019-04-10T19:02:07.720Z,13.00
2019-04-10T19:04:49.566Z,13.10
2019-04-10T19:07:36.494Z,13.00
2019-04-10T19:10:22.114Z,13.00
2019-04-10T19:13:05.548Z,13.00
2019-04-10T19:15:45.202Z,13.00
2019-04-10T19:18:25.898Z,12.90
2019-04-10T19:21:05.299Z,12.90
2019-04-10T19:23:45.563Z,12.80
2019-04-10T19:26:27.430Z,12.80
2019-04-10T19:29:17.180Z,12.80
2019-04-10T19:31:56.531Z,12.80
2019-04-10T19:34:37.198Z,12.70
2019-04-10T19:37:14.494Z,12.80
2019-04-10T19:39:58.449Z,12.70
2019-04-10T19:42:33.454Z,12.80
2019-04-10T19:45:12.013Z,12.80
2019-04-10T19:47:44.667Z,12.80
2019-04-10T19:50:19.335Z,12.80
2019-04-10T19:52:53.180Z,12.80
2019-04-10T19:55:25.649Z,12.80
2019-04-10T19:58:00.345Z,12.80
2019-04-10T20:00:35.371Z,12.80
2019-04-10T20:03:07.795Z,12.90
2019-04-10T20:05:41.386Z,12.80
2019-04-10T20:08:13.738Z,12.90
2019-04-10T20:10:45.788Z,13.00
2019-04-10T20:13:18.706Z,12.90
2019-04-10T20:15:50.980Z,12.90
2019-04-10T20:18:24.406Z,12.80
2019-04-10T20:20:56.859Z,12.80
2019-04-10T20:23:29.887Z,12.70
2019-04-10T20:26:03.309Z,12.70
2019-04-10T20:28:36.514Z,12.70
2019-04-10T20:31:13.126Z,12.70
2019-04-10T20:33:45.327Z,12.70
2019-04-10T20:36:17.253Z,12.70
2019-04-10T20:38:50.262Z,12.80
2019-04-10T20:41:22.692Z,12.80
2019-04-10T20:43:55.377Z,12.80
2019-04-10T20:46:28.477Z,12.70
2019-04-10T20:49:00.613Z,12.70
2019-04-10T20:51:32.997Z,12.60
2019-04-10T20:54:04.990Z,12.60
2019-04-10T20:56:37.133Z,12.60
2019-04-10T20:59:09.960Z,12.60
2019-04-10T21:01:42.569Z,12.60
2019-04-10T21:04:15.185Z,12.30
2019-04-10T21:06:48.167Z,12.20
2019-04-10T21:09:20.511Z,12.10
2019-04-10T21:12:02.074Z,11.80
2019-04-10T21:14:27.507Z,11.70
2019-04-10T21:17:00.393Z,11.60
2019-04-10T21:19:35.493Z,11.60
2019-04-10T21:22:08.115Z,11.50
2019-04-10T21:24:39.239Z,11.40
2019-04-10T21:27:11.308Z,11.30
2019-04-10T21:29:54.954Z,11.30
2019-04-10T21:32:34.820Z,11.20
2019-04-10T21:35:10.010Z,11.20
2019-04-10T21:37:42.369Z,11.20
2019-04-10T21:40:15.187Z,11.20
2019-04-10T21:42:47.711Z,11.20
2019-04-10T21:45:18.749Z,11.10
2019-04-10T21:47:50.271Z,11.00
2019-04-10T21:50:21.711Z,10.90
2019-04-10T21:52:53.589Z,10.80
2019-04-10T21:55:26.788Z,10.70
2019-04-10T21:57:59.586Z,10.60
2019-04-10T22:00:53.065Z,10.60
2019-04-10T22:03:25.957Z,10.50
2019-04-10T22:06:15.737Z,10.50
2019-04-10T22:08:58.331Z,10.30
2019-04-10T22:11:30.864Z,10.20
2019-04-10T22:14:02.896Z,10.10
2019-04-10T22:16:35.756Z,10.10
2019-04-10T22:19:07.997Z,10.00
2019-04-10T22:21:40.037Z,9.90
2019-04-10T22:24:12.122Z,9.90
2019-04-10T22:26:44.537Z,9.90
2019-04-10T22:29:17.621Z,9.90
2019-04-10T22:31:49.730Z,9.90
2019-04-10T22:34:21.901Z,9.90
2019-04-10T22:36:53.818Z,9.90
2019-04-10T22:39:27.449Z,9.80
2019-04-10T22:41:59.553Z,9.80
2019-04-10T22:44:39.180Z,9.70
2019-04-10T22:47:07.244Z,9.60
2019-04-10T22:49:39.387Z,9.60
2019-04-10T22:52:11.451Z,9.60
2019-04-10T22:54:44.347Z,9.50
2019-04-10T22:57:16.484Z,9.50
2019-04-10T22:59:48.862Z,9.50
2019-04-10T23:02:21.466Z,9.40
2019-04-10T23:04:53.535Z,9.40
2019-04-10T23:07:26.061Z,9.30
2019-04-10T23:09:58.254Z,9.30
2019-04-10T23:12:30.454Z,9.20
2019-04-10T23:15:03.006Z,9.20
2019-04-10T23:17:36.956Z,9.20
2019-04-10T23:20:09.168Z,9.10
2019-04-10T23:22:41.146Z,9.20
2019-04-10T23:25:13.219Z,9.20
2019-04-10T23:27:46.113Z,9.20
2019-04-10T23:30:19.953Z,9.10
2019-04-10T23:32:53.510Z,9.10
2019-04-10T23:35:25.945Z,9.00
2019-04-10T23:37:57.904Z,9.00
2019-04-10T23:40:31.092Z,9.00
2019-04-10T23:43:12.268Z,9.00
2019-04-10T23:45:37.705Z,9.10
2019-04-10T23:48:10.772Z,9.00
2019-04-10T23:50:43.583Z,9.10
2019-04-10T23:53:16.165Z,9.10
2019-04-10T23:55:48.325Z,9.20
2019-04-10T23:58:20.495Z,9.10
